Time;durP1;ratioP1;P1;durP2;ratioP2;P2;SDS_P1;SDS_P2;PMS_P1;PMS_P2;Temp;Humidity;BMP_temperature;BMP_pressure;BME280_temperature;BME280_humidity;BME280_pressure;Samples;Min_cycle;Max_cycle;Signal;HPM_P1;HPM_P2
2021/08/16 00:00:17;;;;;;;11.23;7.45;;;;;;;;;;5093150;28;20086;-69
2021/08/16 00:02:45;;;;;;;17.73;7.70;;;;;;;;;;5093405;28;20040;-70
2021/08/16 00:05:11;;;;;;;14.93;7.25;;;;;;;;;;5092978;28;20539;-71
2021/08/16 00:07:38;;;;;;;9.32;7.18;;;;;;;;;;5093118;28;20426;-75
2021/08/16 00:10:05;;;;;;;13.35;7.50;;;;;;;;;;5092985;28;20024;-69
2021/08/16 00:12:31;;;;;;;10.60;6.38;;;;;;;;;;5093272;28;20032;-69
2021/08/16 00:14:57;;;;;;;12.65;6.90;;;;;;;;;;5074904;28;20437;-71
2021/08/16 00:17:23;;;;;;;12.18;7.45;;;;;;;;;;5092751;28;20515;-70
2021/08/16 00:19:49;;;;;;;11.77;7.18;;;;;;;;;;5092864;28;20032;-70
2021/08/16 00:22:15;;;;;;;16.98;6.95;;;;;;;;;;5093185;28;20032;-76
2021/08/16 00:24:42;;;;;;;9.98;5.72;;;;;;;;;;5093039;28;20107;-70
2021/08/16 00:27:08;;;;;;;13.15;5.78;;;;;;;;;;5093065;28;20158;-70
2021/08/16 00:29:34;;;;;;;13.30;5.85;;;;;;;;;;5093008;28;20056;-68
2021/08/16 00:32:00;;;;;;;8.82;5.78;;;;;;;;;;5092760;28;20036;-72
2021/08/16 00:34:26;;;;;;;8.70;5.78;;;;;;;;;;5092983;28;20060;-69
2021/08/16 00:36:52;;;;;;;6.80;5.28;;;;;;;;;;5092860;28;20123;-72
2021/08/16 00:39:19;;;;;;;8.93;6.05;;;;;;;;;;5092866;28;20032;-70
2021/08/16 00:41:46;;;;;;;11.63;5.90;;;;;;;;;;5092709;28;20389;-71
2021/08/16 00:44:12;;;;;;;24.02;7.82;;;;;;;;;;5092798;28;20033;-70
2021/08/16 00:46:38;;;;;;;14.98;5.80;;;;;;;;;;5092902;28;20036;-77
2021/08/16 00:49:04;;;;;;;15.98;6.28;;;;;;;;;;5092651;28;20036;-70
2021/08/16 00:51:33;;;;;;;9.95;6.60;;;;;;;;;;5092825;28;20039;-75
2021/08/16 00:53:59;;;;;;;11.38;6.40;;;;;;;;;;5092797;28;20024;-69
2021/08/16 00:56:26;;;;;;;9.10;6.45;;;;;;;;;;5093042;28;20120;-72
2021/08/16 00:58:56;;;;;;;9.82;6.65;;;;;;;;;;5092092;28;20036;-70
2021/08/16 01:01:22;;;;;;;11.90;6.90;;;;;;;;;;5096463;28;20056;-70
2021/08/16 01:03:48;;;;;;;12.80;7.20;;;;;;;;;;5096247;28;20084;-73
2021/08/16 01:06:14;;;;;;;13.75;7.55;;;;;;;;;;5095838;28;20032;-70
2021/08/16 01:08:41;;;;;;;10.48;6.95;;;;;;;;;;5096270;28;20399;-73
2021/08/16 01:11:07;;;;;;;17.35;7.07;;;;;;;;;;5096250;28;20036;-70
2021/08/16 01:13:33;;;;;;;11.30;6.97;;;;;;;;;;5096443;28;20405;-70
2021/08/16 01:16:00;;;;;;;15.75;6.63;;;;;;;;;;5096031;28;20048;-76
2021/08/16 01:18:27;;;;;;;14.90;6.90;;;;;;;;;;5095761;28;20063;-69
2021/08/16 01:20:53;;;;;;;10.32;6.13;;;;;;;;;;5095712;28;20396;-73
2021/08/16 01:23:20;;;;;;;11.85;5.70;;;;;;;;;;5096142;28;20028;-68
2021/08/16 01:25:47;;;;;;;10.98;5.45;;;;;;;;;;5095918;28;20118;-68
2021/08/16 01:28:15;;;;;;;7.82;5.53;;;;;;;;;;5095428;28;20028;-68
2021/08/16 01:30:41;;;;;;;10.48;5.40;;;;;;;;;;5095866;28;20043;-68
2021/08/16 01:33:07;;;;;;;11.02;6.20;;;;;;;;;;5095739;28;20033;-68
2021/08/16 01:35:33;;;;;;;7.60;5.28;;;;;;;;;;5095221;28;20044;-68
2021/08/16 01:37:59;;;;;;;15.13;6.10;;;;;;;;;;5095679;28;20062;-72
2021/08/16 01:40:25;;;;;;;6.78;4.95;;;;;;;;;;5095556;28;20472;-69
2021/08/16 01:42:51;;;;;;;7.82;5.03;;;;;;;;;;5095410;28;20028;-69
2021/08/16 01:45:17;;;;;;;9.60;5.03;;;;;;;;;;5095574;28;20036;-69
2021/08/16 01:47:43;;;;;;;10.57;4.90;;;;;;;;;;5095574;28;20032;-69
2021/08/16 01:50:09;;;;;;;8.75;4.90;;;;;;;;;;5095437;28;20043;-68
2021/08/16 01:52:36;;;;;;;11.88;5.22;;;;;;;;;;5095472;28;20028;-69
2021/08/16 01:55:02;;;;;;;10.93;4.75;;;;;;;;;;5095353;28;20028;-70
2021/08/16 01:57:28;;;;;;;9.07;4.97;;;;;;;;;;5095118;28;20099;-69
2021/08/16 01:59:54;;;;;;;9.80;5.85;;;;;;;;;;5094886;28;20032;-70
2021/08/16 02:02:20;;;;;;;6.93;5.28;;;;;;;;;;5095073;28;20040;-69
2021/08/16 02:04:47;;;;;;;7.90;5.07;;;;;;;;;;5095195;28;20028;-70
2021/08/16 02:07:13;;;;;;;10.13;5.55;;;;;;;;;;5095161;28;20028;-72
2021/08/16 02:09:39;;;;;;;6.68;4.90;;;;;;;;;;5094825;28;20123;-73
2021/08/16 02:12:06;;;;;;;11.43;5.22;;;;;;;;;;5094064;28;20038;-70
2021/08/16 02:14:32;;;;;;;10.02;5.15;;;;;;;;;;5094673;28;20032;-70
2021/08/16 02:16:58;;;;;;;15.10;5.03;;;;;;;;;;5094920;28;20062;-69
2021/08/16 02:19:24;;;;;;;7.57;4.60;;;;;;;;;;5094989;28;20467;-70
2021/08/16 02:21:50;;;;;;;7.78;5.13;;;;;;;;;;5094814;28;20035;-71
2021/08/16 02:24:16;;;;;;;10.45;6.15;;;;;;;;;;5094580;28;20060;-70
2021/08/16 02:26:42;;;;;;;13.45;5.45;;;;;;;;;;5094451;28;20060;-70
2021/08/16 02:29:09;;;;;;;12.43;6.22;;;;;;;;;;5094291;28;20032;-71
2021/08/16 02:31:35;;;;;;;12.15;6.60;;;;;;;;;;5076244;28;20039;-77
2021/08/16 02:34:01;;;;;;;9.43;5.97;;;;;;;;;;5094467;28;20024;-73
2021/08/16 02:36:28;;;;;;;12.70;7.03;;;;;;;;;;5094374;28;20560;-70
2021/08/16 02:38:54;;;;;;;11.23;7.00;;;;;;;;;;5094224;28;20138;-71
2021/08/16 02:41:20;;;;;;;12.80;6.40;;;;;;;;;;5094549;28;20036;-72
2021/08/16 02:43:46;;;;;;;10.88;6.38;;;;;;;;;;5094051;28;20024;-70
2021/08/16 02:46:12;;;;;;;8.98;5.30;;;;;;;;;;5093846;28;20032;-70
2021/08/16 02:48:38;;;;;;;13.18;6.35;;;;;;;;;;5075871;28;20383;-76
2021/08/16 02:51:04;;;;;;;9.25;5.45;;;;;;;;;;5094035;28;20039;-74
2021/08/16 02:53:30;;;;;;;8.90;5.47;;;;;;;;;;5093877;28;20468;-69
2021/08/16 02:55:56;;;;;;;11.23;5.20;;;;;;;;;;5093838;28;20046;-74
2021/08/16 02:58:23;;;;;;;10.05;5.22;;;;;;;;;;5094193;28;20433;-77
2021/08/16 03:00:49;;;;;;;15.10;5.57;;;;;;;;;;5093637;28;20040;-73
2021/08/16 03:03:15;;;;;;;10.93;5.28;;;;;;;;;;5093710;28;20052;-70
2021/08/16 03:05:41;;;;;;;10.48;5.53;;;;;;;;;;5093599;28;20399;-70
2021/08/16 03:08:07;;;;;;;14.13;6.25;;;;;;;;;;5094042;28;20038;-72
2021/08/16 03:10:34;;;;;;;9.02;5.13;;;;;;;;;;5093738;28;20035;-71
2021/08/16 03:13:00;;;;;;;9.30;5.45;;;;;;;;;;5094587;28;20435;-70
2021/08/16 03:15:27;;;;;;;13.73;6.13;;;;;;;;;;5093760;28;20048;-73
2021/08/16 03:17:55;;;;;;;9.27;5.72;;;;;;;;;;5093971;28;20105;-69
2021/08/16 03:20:21;;;;;;;10.52;6.18;;;;;;;;;;5093586;28;20040;-71
2021/08/16 03:22:47;;;;;;;8.77;5.38;;;;;;;;;;5093201;28;20480;-73
2021/08/16 03:25:13;;;;;;;8.68;5.55;;;;;;;;;;5093621;28;20028;-76
2021/08/16 03:27:39;;;;;;;9.95;5.30;;;;;;;;;;5093441;28;20034;-76
2021/08/16 03:30:06;;;;;;;11.45;5.57;;;;;;;;;;5093687;28;20036;-74
2021/08/16 03:32:32;;;;;;;7.53;5.13;;;;;;;;;;5093631;28;20396;-69
2021/08/16 03:34:58;;;;;;;14.00;6.07;;;;;;;;;;5093402;28;20038;-74
2021/08/16 03:37:24;;;;;;;8.93;5.13;;;;;;;;;;5093329;28;20396;-72
2021/08/16 03:39:50;;;;;;;12.63;6.15;;;;;;;;;;5093664;28;20496;-71
2021/08/16 03:42:16;;;;;;;11.75;5.57;;;;;;;;;;5093422;28;20032;-70
2021/08/16 03:44:42;;;;;;;10.70;5.18;;;;;;;;;;5093480;28;20507;-75
2021/08/16 03:47:08;;;;;;;13.70;5.88;;;;;;;;;;5093478;28;20036;-75
2021/08/16 03:49:34;;;;;;;12.77;5.30;;;;;;;;;;5093222;28;20024;-77
2021/08/16 03:52:00;;;;;;;11.43;5.35;;;;;;;;;;5093214;28;20028;-72
2021/08/16 03:54:26;;;;;;;10.18;4.93;;;;;;;;;;5093195;28;20060;-76
2021/08/16 03:56:52;;;;;;;11.00;5.40;;;;;;;;;;5093175;28;20140;-70
2021/08/16 03:59:18;;;;;;;9.15;5.75;;;;;;;;;;5093249;28;20032;-69
2021/08/16 04:01:44;;;;;;;8.88;5.13;;;;;;;;;;5093206;28;20036;-69
2021/08/16 04:04:10;;;;;;;12.63;5.20;;;;;;;;;;5092675;28;20093;-72
2021/08/16 04:06:37;;;;;;;11.73;5.03;;;;;;;;;;5093208;28;20040;-69
2021/08/16 04:09:03;;;;;;;11.10;4.85;;;;;;;;;;5093035;28;20024;-70
2021/08/16 04:11:29;;;;;;;12.20;4.95;;;;;;;;;;5093211;28;20036;-70
2021/08/16 04:13:55;;;;;;;10.65;5.10;;;;;;;;;;5093172;28;20377;-71
2021/08/16 04:16:21;;;;;;;11.38;4.65;;;;;;;;;;5092853;28;20055;-70
2021/08/16 04:18:47;;;;;;;7.95;5.00;;;;;;;;;;5075022;28;20426;-70
2021/08/16 04:21:13;;;;;;;8.63;4.80;;;;;;;;;;5092972;28;20115;-69
2021/08/16 04:23:39;;;;;;;10.55;4.90;;;;;;;;;;5092741;28;20040;-69
2021/08/16 04:26:05;;;;;;;13.88;4.80;;;;;;;;;;5092993;28;20032;-73
2021/08/16 04:28:31;;;;;;;10.85;4.80;;;;;;;;;;5092850;28;20039;-70
2021/08/16 04:30:57;;;;;;;10.45;5.13;;;;;;;;;;5093071;28;20036;-69
2021/08/16 04:33:24;;;;;;;12.05;5.78;;;;;;;;;;5092899;28;20032;-71
2021/08/16 04:35:52;;;;;;;10.32;5.40;;;;;;;;;;5095891;28;20123;-69
2021/08/16 04:38:19;;;;;;;15.75;5.90;;;;;;;;;;5097007;28;20044;-72
2021/08/16 04:40:46;;;;;;;10.75;5.18;;;;;;;;;;5096593;28;20032;-69
2021/08/16 04:43:13;;;;;;;13.98;5.60;;;;;;;;;;5096722;28;20052;-69
2021/08/16 04:45:40;;;;;;;12.15;5.30;;;;;;;;;;5096643;28;20044;-71
2021/08/16 04:48:06;;;;;;;13.05;5.82;;;;;;;;;;5096761;28;20111;-68
2021/08/16 04:50:32;;;;;;;15.70;5.65;;;;;;;;;;5096511;28;20039;-73
2021/08/16 04:52:58;;;;;;;16.30;6.20;;;;;;;;;;5096386;28;20028;-70
2021/08/16 04:55:24;;;;;;;13.90;5.00;;;;;;;;;;5096403;28;20064;-70
2021/08/16 04:57:50;;;;;;;14.43;5.32;;;;;;;;;;5096545;28;20480;-71
2021/08/16 05:00:18;;;;;;;12.13;5.60;;;;;;;;;;5096431;28;20031;-69
2021/08/16 05:02:44;;;;;;;12.05;5.35;;;;;;;;;;5096091;28;20123;-70
2021/08/16 05:05:14;;;;;;;16.17;5.38;;;;;;;;;;5096157;28;20480;-69
2021/08/16 05:07:50;;;;;;;13.73;5.53;;;;;;;;;;5096285;28;20059;-72
2021/08/16 05:10:17;;;;;;;9.43;4.88;;;;;;;;;;5096226;28;20507;-70
2021/08/16 05:12:43;;;;;;;12.55;5.60;;;;;;;;;;5096217;28;20480;-70
2021/08/16 05:15:09;;;;;;;8.98;5.55;;;;;;;;;;5096266;28;20039;-70
2021/08/16 05:17:36;;;;;;;16.25;5.85;;;;;;;;;;5095835;28;20036;-70
2021/08/16 05:20:04;;;;;;;17.52;6.03;;;;;;;;;;5096184;28;20028;-69
2021/08/16 05:22:30;;;;;;;12.73;5.60;;;;;;;;;;5096188;28;20085;-71
2021/08/16 05:24:56;;;;;;;12.88;5.70;;;;;;;;;;5096075;28;20039;-72
2021/08/16 05:27:22;;;;;;;14.68;5.85;;;;;;;;;;5096031;28;20028;-70
2021/08/16 05:29:48;;;;;;;13.52;5.65;;;;;;;;;;5096003;28;20419;-70
2021/08/16 05:32:16;;;;;;;12.77;5.28;;;;;;;;;;5095753;28;20520;-70
2021/08/16 05:34:42;;;;;;;17.13;5.32;;;;;;;;;;5095926;28;20059;-74
2021/08/16 05:37:08;;;;;;;11.15;4.93;;;;;;;;;;5095609;28;20054;-71
2021/08/16 05:39:34;;;;;;;13.05;5.15;;;;;;;;;;5095879;28;20066;-71
2021/08/16 05:42:01;;;;;;;13.00;5.20;;;;;;;;;;5095835;28;20063;-72
2021/08/16 05:44:27;;;;;;;12.93;5.70;;;;;;;;;;5095746;28;20108;-72
2021/08/16 05:46:54;;;;;;;11.40;5.60;;;;;;;;;;5095250;28;20062;-75
2021/08/16 05:49:20;;;;;;;15.00;5.22;;;;;;;;;;5095468;28;20480;-73
2021/08/16 05:51:46;;;;;;;7.97;5.43;;;;;;;;;;5095453;28;20127;-76
2021/08/16 05:54:12;;;;;;;11.32;4.85;;;;;;;;;;5095663;28;20043;-70
2021/08/16 05:56:39;;;;;;;14.38;5.35;;;;;;;;;;5095227;28;20099;-72
2021/08/16 05:59:05;;;;;;;14.38;5.88;;;;;;;;;;5095350;28;20124;-70
2021/08/16 06:01:35;;;;;;;15.05;5.63;;;;;;;;;;5095290;28;20040;-70
2021/08/16 06:04:01;;;;;;;14.35;6.03;;;;;;;;;;5095102;28;20044;-72
2021/08/16 06:06:27;;;;;;;9.90;5.35;;;;;;;;;;5095059;28;20109;-74
2021/08/16 06:08:53;;;;;;;10.30;5.28;;;;;;;;;;5095281;28;20056;-71
2021/08/16 06:11:19;;;;;;;8.23;4.53;;;;;;;;;;5077224;28;20074;-76
2021/08/16 06:13:46;;;;;;;9.77;4.95;;;;;;;;;;5095089;28;20484;-77
2021/08/16 06:16:12;;;;;;;8.77;4.70;;;;;;;;;;5095275;28;20086;-73
2021/08/16 06:18:38;;;;;;;13.18;5.00;;;;;;;;;;5095143;28;20028;-71
2021/08/16 06:21:04;;;;;;;13.15;4.90;;;;;;;;;;5094557;28;20032;-75
2021/08/16 06:23:30;;;;;;;10.23;4.78;;;;;;;;;;5094537;28;20036;-75
2021/08/16 06:25:56;;;;;;;11.13;4.80;;;;;;;;;;5094680;28;20081;-72
2021/08/16 06:28:22;;;;;;;12.23;4.90;;;;;;;;;;5094592;28;20040;-71
2021/08/16 06:30:48;;;;;;;12.43;4.68;;;;;;;;;;5094443;28;20032;-74
2021/08/16 06:33:14;;;;;;;10.05;5.25;;;;;;;;;;5095303;28;20032;-72
2021/08/16 06:35:40;;;;;;;11.23;5.60;;;;;;;;;;5094645;28;20109;-72
2021/08/16 06:38:19;;;;;;;9.70;5.20;;;;;;;;;;5094765;28;20039;-73
2021/08/16 06:40:45;;;;;;;11.70;5.25;;;;;;;;;;5094879;28;20425;-72
2021/08/16 06:43:12;;;;;;;9.38;4.50;;;;;;;;;;5094630;28;20033;-73
2021/08/16 06:45:38;;;;;;;13.40;5.30;;;;;;;;;;5094445;28;20036;-73
2021/08/16 06:48:04;;;;;;;9.13;4.70;;;;;;;;;;5094495;28;20031;-74
2021/08/16 06:50:30;;;;;;;10.65;4.50;;;;;;;;;;5094682;28;20039;-73
2021/08/16 06:52:56;;;;;;;14.27;5.18;;;;;;;;;;5094539;28;20107;-72
2021/08/16 06:55:22;;;;;;;9.05;4.78;;;;;;;;;;5094827;28;20036;-73
2021/08/16 06:57:48;;;;;;;10.70;4.78;;;;;;;;;;5093875;28;20396;-72
2021/08/16 07:00:15;;;;;;;14.60;4.63;;;;;;;;;;5094391;28;20036;-73
2021/08/16 07:02:41;;;;;;;12.13;4.88;;;;;;;;;;5094004;28;20036;-72
2021/08/16 07:05:07;;;;;;;9.00;4.72;;;;;;;;;;5094310;28;20032;-73
2021/08/16 07:07:34;;;;;;;9.75;4.82;;;;;;;;;;5094140;28;20032;-71
2021/08/16 07:10:00;;;;;;;11.10;4.60;;;;;;;;;;5094318;28;20036;-72
2021/08/16 07:12:26;;;;;;;10.13;4.40;;;;;;;;;;5094139;28;20111;-72
2021/08/16 07:14:52;;;;;;;11.48;4.53;;;;;;;;;;5093868;28;20495;-68
2021/08/16 07:17:18;;;;;;;12.32;4.55;;;;;;;;;;5094007;28;20036;-71
2021/08/16 07:19:44;;;;;;;10.65;4.82;;;;;;;;;;5093859;28;20050;-70
2021/08/16 07:22:10;;;;;;;12.55;4.60;;;;;;;;;;5093652;28;20039;-68
2021/08/16 07:24:36;;;;;;;11.90;4.25;;;;;;;;;;5093567;28;20472;-68
2021/08/16 07:27:02;;;;;;;9.73;5.32;;;;;;;;;;5093729;28;20047;-69
2021/08/16 07:29:30;;;;;;;12.70;4.45;;;;;;;;;;5093733;28;20078;-69
2021/08/16 07:31:56;;;;;;;10.35;4.50;;;;;;;;;;5094006;28;20055;-68
2021/08/16 07:34:22;;;;;;;10.00;4.85;;;;;;;;;;5093773;28;20028;-68
2021/08/16 07:36:50;;;;;;;11.50;4.72;;;;;;;;;;5093758;28;20043;-68
2021/08/16 07:39:16;;;;;;;13.35;5.00;;;;;;;;;;5094398;28;20085;-70
2021/08/16 07:41:42;;;;;;;11.75;4.63;;;;;;;;;;5093664;28;20357;-68
2021/08/16 07:44:08;;;;;;;9.93;4.45;;;;;;;;;;5093740;28;20466;-68
2021/08/16 07:46:34;;;;;;;10.43;4.38;;;;;;;;;;5093499;28;20032;-70
2021/08/16 07:49:00;;;;;;;12.07;4.50;;;;;;;;;;5093643;28;20114;-68
2021/08/16 07:51:26;;;;;;;9.88;4.40;;;;;;;;;;5093695;28;20059;-68
2021/08/16 07:53:52;;;;;;;9.68;4.00;;;;;;;;;;5093278;28;20029;-68
2021/08/16 07:56:18;;;;;;;15.55;4.60;;;;;;;;;;5093532;28;20089;-69
2021/08/16 07:58:44;;;;;;;12.95;4.30;;;;;;;;;;5093385;28;20028;-70
2021/08/16 08:01:10;;;;;;;12.60;4.30;;;;;;;;;;5093550;28;20040;-68
2021/08/16 08:03:36;;;;;;;8.00;4.28;;;;;;;;;;5093184;28;20044;-70
2021/08/16 08:06:02;;;;;;;12.05;4.60;;;;;;;;;;5093369;28;20032;-69
2021/08/16 08:08:28;;;;;;;15.23;4.95;;;;;;;;;;5093296;28;20437;-68
2021/08/16 08:10:54;;;;;;;11.32;4.40;;;;;;;;;;5096537;28;20111;-70
2021/08/16 08:13:20;;;;;;;13.88;4.30;;;;;;;;;;5097373;28;20107;-68
2021/08/16 08:15:46;;;;;;;17.30;4.38;;;;;;;;;;5097432;28;20511;-70
2021/08/16 08:18:13;;;;;;;13.88;4.20;;;;;;;;;;5097533;28;20380;-70
2021/08/16 08:20:39;;;;;;;8.43;4.68;;;;;;;;;;5097531;28;20064;-69
2021/08/16 08:23:06;;;;;;;7.25;4.30;;;;;;;;;;5097265;28;20453;-70
2021/08/16 08:25:32;;;;;;;8.10;4.10;;;;;;;;;;5097463;28;20036;-69
2021/08/16 08:27:58;;;;;;;9.38;4.43;;;;;;;;;;5097644;28;20362;-71
2021/08/16 08:30:24;;;;;;;18.85;4.72;;;;;;;;;;5097366;28;20028;-68
2021/08/16 08:32:52;;;;;;;10.63;4.13;;;;;;;;;;5097250;28;20043;-70
2021/08/16 08:35:19;;;;;;;8.82;4.32;;;;;;;;;;5096750;28;20032;-69
2021/08/16 08:37:45;;;;;;;9.80;4.20;;;;;;;;;;5097275;28;20039;-69
2021/08/16 08:40:11;;;;;;;8.52;4.03;;;;;;;;;;5097230;28;20126;-69
2021/08/16 08:42:38;;;;;;;6.75;3.90;;;;;;;;;;5096983;28;20039;-71
2021/08/16 08:45:04;;;;;;;10.68;4.07;;;;;;;;;;5097139;28;20028;-68
2021/08/16 08:47:32;;;;;;;9.93;4.10;;;;;;;;;;5096923;28;20038;-70
2021/08/16 08:49:58;;;;;;;9.88;3.95;;;;;;;;;;5096949;28;20036;-68
2021/08/16 08:52:24;;;;;;;10.18;4.50;;;;;;;;;;5096790;28;20034;-68
2021/08/16 08:54:50;;;;;;;11.77;4.60;;;;;;;;;;5096835;28;20059;-70
2021/08/16 08:57:22;;;;;;;8.57;3.63;;;;;;;;;;5096796;28;20161;-72
2021/08/16 08:59:48;;;;;;;10.98;4.53;;;;;;;;;;5078345;28;20059;-69
2021/08/16 09:02:14;;;;;;;7.22;4.22;;;;;;;;;;5096484;28;20069;-67
2021/08/16 09:04:53;;;;;;;8.65;4.00;;;;;;;;;;5096390;28;20480;-68
2021/08/16 09:07:29;;;;;;;7.65;3.92;;;;;;;;;;5078333;28;20032;-67
2021/08/16 09:09:55;;;;;;;17.65;4.32;;;;;;;;;;5096658;28;20140;-68
2021/08/16 09:12:28;;;;;;;10.50;4.70;;;;;;;;;;5096613;28;20035;-67
2021/08/16 09:14:55;;;;;;;10.20;4.20;;;;;;;;;;5096783;28;20039;-69
2021/08/16 09:17:28;;;;;;;7.00;3.65;;;;;;;;;;5096274;28;20076;-67
2021/08/16 09:19:54;;;;;;;13.15;3.80;;;;;;;;;;5078011;28;20036;-67
2021/08/16 09:22:23;;;;;;;17.38;4.60;;;;;;;;;;5096288;28;20032;-68
2021/08/16 09:24:59;;;;;;;9.98;3.88;;;;;;;;;;5096381;28;20036;-69
2021/08/16 09:27:25;;;;;;;13.38;4.15;;;;;;;;;;5096524;28;20429;-68
2021/08/16 09:29:51;;;;;;;14.38;4.07;;;;;;;;;;5096068;28;20032;-70
2021/08/16 09:32:17;;;;;;;12.77;4.03;;;;;;;;;;5096080;28;20469;-71
2021/08/16 09:34:48;;;;;;;10.98;4.00;;;;;;;;;;5095996;28;20028;-68
2021/08/16 09:37:23;;;;;;;12.10;3.95;;;;;;;;;;5096009;28;20040;-68
2021/08/16 09:40:12;;;;;;;8.75;3.88;;;;;;;;;;5095803;28;20040;-70
2021/08/16 09:42:42;;;;;;;9.57;4.00;;;;;;;;;;5095906;28;20469;-69
2021/08/16 09:45:10;;;;;;;10.05;3.90;;;;;;;;;;5095925;28;20043;-67
2021/08/16 09:47:43;;;;;;;10.32;4.00;;;;;;;;;;5095970;28;20103;-72
2021/08/16 09:50:11;;;;;;;11.15;4.03;;;;;;;;;;5095843;28;20036;-70
2021/08/16 09:52:41;;;;;;;11.02;4.03;;;;;;;;;;5077460;28;20035;-70
2021/08/16 09:55:08;;;;;;;17.73;4.30;;;;;;;;;;5077377;28;20028;-68
2021/08/16 09:57:34;;;;;;;22.05;5.03;;;;;;;;;;5095885;28;20391;-68
2021/08/16 10:00:01;;;;;;;24.45;5.05;;;;;;;;;;5095535;28;20028;-68
2021/08/16 10:02:27;;;;;;;16.17;4.43;;;;;;;;;;5095441;28;20043;-71
2021/08/16 10:04:57;;;;;;;24.33;5.15;;;;;;;;;;5077916;28;20064;-68
2021/08/16 10:07:26;;;;;;;25.33;5.38;;;;;;;;;;5095215;28;20035;-68
2021/08/16 10:09:55;;;;;;;27.08;5.22;;;;;;;;;;5095763;28;20047;-68
2021/08/16 10:12:21;;;;;;;23.30;5.30;;;;;;;;;;5095463;28;20357;-68
2021/08/16 10:14:49;;;;;;;30.05;6.13;;;;;;;;;;5095311;28;20116;-68
2021/08/16 10:17:16;;;;;;;21.40;5.20;;;;;;;;;;5077035;28;20102;-68
2021/08/16 10:19:43;;;;;;;26.52;5.55;;;;;;;;;;5095004;28;20039;-68
2021/08/16 10:22:09;;;;;;;25.60;5.28;;;;;;;;;;5094995;28;20036;-69
2021/08/16 10:24:35;;;;;;;26.65;5.40;;;;;;;;;;5094998;28;20032;-68
2021/08/16 10:27:08;;;;;;;34.72;6.38;;;;;;;;;;5076914;28;20148;-68
2021/08/16 10:29:35;;;;;;;37.80;6.28;;;;;;;;;;5095023;28;20042;-71
2021/08/16 10:32:01;;;;;;;24.98;7.38;;;;;;;;;;5094157;28;20036;-71
2021/08/16 10:34:35;;;;;;;27.63;5.50;;;;;;;;;;5095013;28;20028;-69
2021/08/16 10:37:04;;;;;;;28.98;6.13;;;;;;;;;;5094682;28;20040;-71
2021/08/16 10:39:34;;;;;;;32.92;5.95;;;;;;;;;;5094646;28;20043;-72
2021/08/16 10:42:07;;;;;;;30.10;6.05;;;;;;;;;;5076612;28;20138;-71
2021/08/16 10:44:46;;;;;;;28.38;5.60;;;;;;;;;;5094656;28;20024;-72
2021/08/16 10:47:24;;;;;;;23.23;5.45;;;;;;;;;;5094682;28;20036;-72
2021/08/16 10:49:50;;;;;;;20.10;4.90;;;;;;;;;;5094692;28;20070;-70
2021/08/16 10:52:20;;;;;;;29.50;5.97;;;;;;;;;;5094539;28;20062;-70
2021/08/16 10:54:47;;;;;;;25.13;6.13;;;;;;;;;;5094553;28;20036;-69
2021/08/16 10:57:13;;;;;;;24.55;5.80;;;;;;;;;;5094131;28;20388;-69
2021/08/16 10:59:39;;;;;;;27.77;5.97;;;;;;;;;;5094174;28;20465;-70
2021/08/16 11:02:05;;;;;;;27.10;5.35;;;;;;;;;;5094407;28;20039;-70
2021/08/16 11:04:35;;;;;;;29.73;6.10;;;;;;;;;;5094178;28;20500;-69
2021/08/16 11:07:08;;;;;;;26.80;6.20;;;;;;;;;;5094108;28;20073;-70
2021/08/16 11:09:35;;;;;;;30.20;6.10;;;;;;;;;;5094295;28;20036;-70
2021/08/16 11:12:05;;;;;;;33.58;6.18;;;;;;;;;;5094117;28;20051;-70
2021/08/16 11:14:32;;;;;;;26.20;5.65;;;;;;;;;;5094168;28;20046;-69
2021/08/16 11:16:58;;;;;;;29.08;6.53;;;;;;;;;;5094180;28;20040;-70
2021/08/16 11:19:26;;;;;;;29.33;6.10;;;;;;;;;;5094018;28;20047;-70
2021/08/16 11:21:57;;;;;;;28.25;6.15;;;;;;;;;;5093809;28;20046;-70
2021/08/16 11:24:34;;;;;;;27.23;5.88;;;;;;;;;;5093955;28;20710;-70
2021/08/16 11:27:01;;;;;;;26.75;6.10;;;;;;;;;;5094063;28;20462;-71
2021/08/16 11:29:27;;;;;;;35.25;6.85;;;;;;;;;;5093785;28;20473;-70
2021/08/16 11:31:58;;;;;;;23.17;5.93;;;;;;;;;;5093830;28;20036;-70
2021/08/16 11:34:28;;;;;;;31.92;6.35;;;;;;;;;;5093737;28;20081;-69
2021/08/16 11:36:56;;;;;;;33.17;6.80;;;;;;;;;;5093652;28;20047;-70
2021/08/16 11:39:31;;;;;;;20.73;5.63;;;;;;;;;;5093441;28;20032;-70
2021/08/16 11:42:01;;;;;;;31.75;6.45;;;;;;;;;;5093821;28;20376;-71
2021/08/16 11:44:28;;;;;;;21.58;5.90;;;;;;;;;;5093650;28;20042;-70
2021/08/16 11:46:54;;;;;;;34.10;6.80;;;;;;;;;;5094402;28;20032;-70
2021/08/16 11:49:20;;;;;;;28.75;6.47;;;;;;;;;;5093514;28;20476;-71
2021/08/16 11:51:46;;;;;;;28.35;6.70;;;;;;;;;;5093411;28;20392;-70
2021/08/16 11:54:23;;;;;;;28.80;6.50;;;;;;;;;;5093567;28;20071;-70
2021/08/16 11:56:53;;;;;;;24.23;5.47;;;;;;;;;;5093583;28;20086;-70
2021/08/16 11:59:19;;;;;;;33.75;7.05;;;;;;;;;;5093349;28;20032;-71
2021/08/16 12:01:45;;;;;;;32.05;6.35;;;;;;;;;;5093273;28;20047;-70
2021/08/16 12:04:12;;;;;;;41.42;7.40;;;;;;;;;;5093098;28;20048;-70
2021/08/16 12:06:39;;;;;;;32.40;5.95;;;;;;;;;;5093325;28;20552;-70
2021/08/16 12:09:08;;;;;;;36.20;6.90;;;;;;;;;;5093456;28;20039;-70
2021/08/16 12:11:34;;;;;;;31.13;6.40;;;;;;;;;;5093113;28;20032;-70
2021/08/16 12:14:01;;;;;;;26.88;5.63;;;;;;;;;;5093249;28;20035;-71
2021/08/16 12:16:29;;;;;;;21.60;6.00;;;;;;;;;;5093369;28;20396;-70
2021/08/16 12:18:56;;;;;;;30.52;6.18;;;;;;;;;;5093366;28;20090;-68
2021/08/16 12:21:22;;;;;;;36.40;6.20;;;;;;;;;;5093131;28;20113;-70
2021/08/16 12:23:55;;;;;;;43.00;6.95;;;;;;;;;;5093238;28;20111;-69
2021/08/16 12:26:35;;;;;;;44.67;6.45;;;;;;;;;;5093218;28;20063;-70
2021/08/16 12:29:03;;;;;;;31.88;6.80;;;;;;;;;;5093367;28;20067;-70
2021/08/16 12:31:30;;;;;;;40.47;7.18;;;;;;;;;;5093100;28;20476;-70
2021/08/16 12:34:03;;;;;;;25.65;5.82;;;;;;;;;;5092828;28;20063;-70
2021/08/16 12:36:36;;;;;;;33.25;6.32;;;;;;;;;;5093100;28;20051;-70
2021/08/16 12:39:03;;;;;;;31.98;6.00;;;;;;;;;;5093488;28;20028;-71
2021/08/16 12:41:32;;;;;;;34.60;6.38;;;;;;;;;;5092871;28;20036;-70
2021/08/16 12:43:58;;;;;;;28.15;7.07;;;;;;;;;;5093021;28;20092;-70
2021/08/16 12:46:30;;;;;;;36.33;6.03;;;;;;;;;;5093015;28;20024;-70
2021/08/16 12:48:56;;;;;;;34.95;6.25;;;;;;;;;;5093124;28;20036;-70
2021/08/16 12:51:23;;;;;;;38.55;7.07;;;;;;;;;;5093086;28;20032;-69
2021/08/16 12:53:49;;;;;;;38.08;6.07;;;;;;;;;;5092851;28;20036;-70
2021/08/16 12:56:15;;;;;;;28.27;6.20;;;;;;;;;;5094886;28;20396;-70
2021/08/16 12:58:41;;;;;;;42.08;6.63;;;;;;;;;;5096664;28;20040;-71
2021/08/16 13:01:07;;;;;;;37.50;6.50;;;;;;;;;;5096678;28;20040;-71
2021/08/16 13:03:34;;;;;;;29.83;5.80;;;;;;;;;;5096392;28;20040;-71
2021/08/16 13:06:00;;;;;;;31.90;6.43;;;;;;;;;;5096621;28;20035;-71
2021/08/16 13:08:26;;;;;;;35.67;6.45;;;;;;;;;;5096522;28;20127;-72
2021/08/16 13:10:52;;;;;;;28.50;6.00;;;;;;;;;;5096502;28;20036;-71
2021/08/16 13:13:18;;;;;;;33.72;6.15;;;;;;;;;;5096628;28;20028;-70
2021/08/16 13:15:44;;;;;;;21.35;5.85;;;;;;;;;;5096341;28;20484;-70
2021/08/16 13:18:10;;;;;;;35.65;6.18;;;;;;;;;;5096437;28;20032;-70
2021/08/16 13:20:39;;;;;;;32.20;6.68;;;;;;;;;;5096581;28;20075;-70
2021/08/16 13:23:05;;;;;;;41.90;7.00;;;;;;;;;;5096050;28;20481;-70
2021/08/16 13:25:34;;;;;;;28.90;6.68;;;;;;;;;;5095835;28;20040;-68
2021/08/16 13:28:00;;;;;;;38.92;6.75;;;;;;;;;;5095910;28;20028;-70
2021/08/16 13:30:26;;;;;;;28.38;6.28;;;;;;;;;;5095754;28;20028;-70
2021/08/16 13:32:52;;;;;;;30.20;5.63;;;;;;;;;;5095723;28;20032;-69
2021/08/16 13:35:18;;;;;;;34.97;6.63;;;;;;;;;;5095774;28;20032;-68
2021/08/16 13:37:44;;;;;;;34.67;6.53;;;;;;;;;;5095595;28;20036;-68
2021/08/16 13:40:10;;;;;;;34.83;6.43;;;;;;;;;;5095917;28;20034;-67
2021/08/16 13:42:37;;;;;;;31.65;6.45;;;;;;;;;;5077569;28;20118;-68
2021/08/16 13:45:04;;;;;;;27.40;6.25;;;;;;;;;;5095604;28;20108;-70
2021/08/16 13:47:30;;;;;;;30.42;5.93;;;;;;;;;;5095367;28;20032;-68
2021/08/16 13:49:56;;;;;;;35.45;7.22;;;;;;;;;;5095764;28;20039;-68
2021/08/16 13:52:22;;;;;;;25.70;7.10;;;;;;;;;;5095364;28;20035;-68
2021/08/16 13:54:48;;;;;;;40.17;8.18;;;;;;;;;;5095743;28;20350;-68
2021/08/16 13:57:14;;;;;;;32.00;6.70;;;;;;;;;;5095199;28;20089;-69
2021/08/16 13:59:40;;;;;;;32.97;6.75;;;;;;;;;;5095302;28;20032;-68
2021/08/16 14:02:06;;;;;;;26.92;6.57;;;;;;;;;;5095227;28;20542;-69
2021/08/16 14:04:32;;;;;;;32.65;6.65;;;;;;;;;;5094994;28;20047;-68
2021/08/16 14:06:58;;;;;;;42.78;7.18;;;;;;;;;;5095370;28;20032;-69
2021/08/16 14:09:24;;;;;;;36.60;7.15;;;;;;;;;;5095053;28;20085;-69
2021/08/16 14:11:50;;;;;;;39.03;7.80;;;;;;;;;;5095262;28;20036;-68
2021/08/16 14:14:16;;;;;;;37.90;7.22;;;;;;;;;;5095356;28;20532;-68
2021/08/16 14:16:43;;;;;;;45.25;8.07;;;;;;;;;;5095126;28;20040;-67
2021/08/16 14:19:09;;;;;;;37.53;6.88;;;;;;;;;;5095463;28;20039;-67
2021/08/16 14:21:35;;;;;;;37.90;7.57;;;;;;;;;;5094819;28;20043;-68
2021/08/16 14:24:01;;;;;;;43.75;7.22;;;;;;;;;;5094777;28;20396;-68
2021/08/16 14:26:27;;;;;;;35.42;7.03;;;;;;;;;;5095063;28;20045;-67
2021/08/16 14:28:53;;;;;;;42.08;6.43;;;;;;;;;;5094812;28;20468;-69
2021/08/16 14:31:19;;;;;;;34.22;6.55;;;;;;;;;;5095033;28;20119;-70